Map

Track Data

SID SEASON NUMBER BASIN SUBBASIN NAME ISO_TIME NATURE LAT LON WMO_WIND WMO_PRES WMO_AGENCY TRACK_TYPE DIST2LAND LANDFALL IFLAG USA_AGENCY USA_ATCF_ID USA_LAT USA_LON USA_RECORD USA_STATUS USA_WIND USA_PRES USA_SSHS USA_R34_NE USA_R34_SE USA_R34_SW USA_R34_NW USA_R50_NE USA_R50_SE USA_R50_SW USA_R50_NW USA_R64_NE USA_R64_SE USA_R64_SW USA_R64_NW USA_POCI USA_ROCI USA_RMW USA_EYE TOKYO_LAT TOKYO_LON TOKYO_GRADE TOKYO_WIND TOKYO_PRES TOKYO_R50_DIR TOKYO_R50_LONG TOKYO_R50_SHORT TOKYO_R30_DIR TOKYO_R30_LONG TOKYO_R30_SHORT TOKYO_LAND CMA_LAT CMA_LON CMA_CAT CMA_WIND CMA_PRES HKO_LAT HKO_LON HKO_CAT HKO_WIND HKO_PRES NEWDELHI_LAT NEWDELHI_LON NEWDELHI_GRADE NEWDELHI_WIND NEWDELHI_PRES NEWDELHI_CI NEWDELHI_DP NEWDELHI_POCI REUNION_LAT REUNION_LON REUNION_TYPE REUNION_WIND REUNION_PRES REUNION_TNUM REUNION_CI REUNION_RMW REUNION_R34_NE REUNION_R34_SE REUNION_R34_SW REUNION_R34_NW REUNION_R50_NE REUNION_R50_SE REUNION_R50_SW REUNION_R50_NW REUNION_R64_NE REUNION_R64_SE REUNION_R64_SW REUNION_R64_NW BOM_LAT BOM_LON BOM_TYPE BOM_WIND BOM_PRES BOM_TNUM BOM_CI BOM_RMW BOM_R34_NE BOM_R34_SE BOM_R34_SW BOM_R34_NW BOM_R50_NE BOM_R50_SE BOM_R50_SW BOM_R50_NW BOM_R64_NE BOM_R64_SE BOM_R64_SW BOM_R64_NW BOM_ROCI BOM_POCI BOM_EYE BOM_POS_METHOD BOM_PRES_METHOD NADI_LAT NADI_LON NADI_CAT NADI_WIND NADI_PRES WELLINGTON_LAT WELLINGTON_LON WELLINGTON_WIND WELLINGTON_PRES DS824_LAT DS824_LON DS824_STAGE DS824_WIND DS824_PRES TD9636_LAT TD9636_LON TD9636_STAGE TD9636_WIND TD9636_PRES TD9635_LAT TD9635_LON TD9635_WIND TD9635_PRES TD9635_ROCI NEUMANN_LAT NEUMANN_LON NEUMANN_CLASS NEUMANN_WIND NEUMANN_PRES MLC_LAT MLC_LON MLC_CLASS MLC_WIND MLC_PRES USA_GUST BOM_GUST BOM_GUST_PER REUNION_GUST REUNION_GUST_PER USA_SEAHGT USA_SEARAD_NE USA_SEARAD_SE USA_SEARAD_SW USA_SEARAD_NW STORM_SPEED STORM_DIR
1910205N21145 1910 27 WP MM NOT_NAMED 1910-07-23 16:00:00 NR 21.0000 145.100 main 1632 1586 __________O___ -1 21.0000 145.100 7 15 300
1910205N21145 1910 27 WP MM NOT_NAMED 1910-07-23 18:00:00 NR 21.2551 144.626 main 1586 1534 __________P___ -1 21.2551 144.626 7 15 300
1910205N21145 1910 27 WP MM NOT_NAMED 1910-07-23 21:00:00 NR 21.6282 143.929 main 1534 1469 __________P___ -1 21.6282 143.929 7 15 300
1910205N21145 1910 27 WP MM NOT_NAMED 1910-07-24 00:00:00 NR 21.9805 143.271 main 1469 1411 __________P___ -1 21.9805 143.271 7 13 300
1910205N21145 1910 27 WP MM NOT_NAMED 1910-07-24 03:00:00 NR 22.3016 142.678 main 1411 1392 __________P___ -1 22.3016 142.678 7 12 300
1910205N21145 1910 27 WP MM NOT_NAMED 1910-07-24 04:00:00 NR 22.4000 142.500 main 1392 1358 __________O___ -1 22.4000 142.500 7 11 301
1910205N21145 1910 27 WP MM NOT_NAMED 1910-07-24 06:00:00 NR 22.5827 142.175 main 1358 1320 __________P___ -1 22.5827 142.175 7 10 302
1910205N21145 1910 27 WP MM NOT_NAMED 1910-07-24 09:00:00 NR 22.8262 141.752 main 1320 1283 __________P___ -1 22.8262 141.752 7 9 302
1910205N21145 1910 27 WP MM NOT_NAMED 1910-07-24 12:00:00 NR 23.0415 141.378 main 1283 1246 __________P___ -1 23.0415 141.378 7 8 301
1910205N21145 1910 27 WP MM NOT_NAMED 1910-07-24 15:00:00 NR 23.2374 141.021 main 1246 1232 __________P___ -1 23.2374 141.021 7 8 300
1910205N21145 1910 27 WP MM NOT_NAMED 1910-07-24 16:00:00 NR 23.3000 140.900 main 1232 1210 __________O___ -1 23.3000 140.900 7 8 299
1910205N21145 1910 27 WP MM NOT_NAMED 1910-07-24 18:00:00 NR 23.4331 140.633 main 1210 1174 __________P___ -1 23.4331 140.633 7 8 298
1910205N21145 1910 27 WP MM NOT_NAMED 1910-07-24 21:00:00 NR 23.6204 140.233 main 1174 1140 __________P___ -1 23.6204 140.233 7 8 296
1910205N21145 1910 27 WP MM NOT_NAMED 1910-07-25 00:00:00 NR 23.7930 139.833 main 1140 1106 __________P___ -1 23.7930 139.833 7 8 294
1910205N21145 1910 27 WP MM NOT_NAMED 1910-07-25 03:00:00 NR 23.9507 139.433 main 1106 1103 __________P___ -1 23.9507 139.433 7 8 293
1910205N21145 1910 27 WP MM NOT_NAMED 1910-07-25 04:00:00 NR 24.0000 139.300 main 1103 1083 __________O___ -1 24.0000 139.300 7 8 291
1910205N21145 1910 27 WP MM NOT_NAMED 1910-07-25 06:00:00 NR 24.0919 139.030 main 1083 1062 __________P___ -1 24.0919 139.030 7 8 289
1910205N21145 1910 27 WP MM NOT_NAMED 1910-07-25 09:00:00 NR 24.2173 138.626 main 1062 1035 __________P___ -1 24.2173 138.626 7 8 288
1910205N21145 1910 27 WP MM NOT_NAMED 1910-07-25 12:00:00 NR 24.3360 138.225 main 1035 993 __________P___ -1 24.3360 138.225 7 8 288
1910205N21145 1910 27 WP MM NOT_NAMED 1910-07-25 15:00:00 NR 24.4573 137.830 main 993 987 __________P___ -1 24.4573 137.830 7 8 289
1910205N21145 1910 27 WP MM NOT_NAMED 1910-07-25 16:00:00 NR 24.5000 137.700 main 987 960 __________O___ -1 24.5000 137.700 3 7 292
1910205N21145 1910 27 WP MM NOT_NAMED 1910-07-25 18:00:00 NR 24.5965 137.449 main 960 933 __________P___ -1 24.5965 137.449 3 7 294
1910205N21145 1910 27 WP MM NOT_NAMED 1910-07-25 21:00:00 NR 24.7480 137.080 main 933 891 __________P___ -1 24.7480 137.080 3 7 294
1910205N21145 1910 27 WP MM NOT_NAMED 1910-07-26 00:00:00 NR 24.9018 136.710 main 891 850 __________P___ -1 24.9018 136.710 3 7 294
1910205N21145 1910 27 WP MM NOT_NAMED 1910-07-26 03:00:00 NR 25.0519 136.330 main 850 845 __________P___ -1 25.0519 136.330 3 8 293
1910205N21145 1910 27 WP MM NOT_NAMED 1910-07-26 04:00:00 NR 25.1000 136.200 main 845 820 __________O___ -1 25.1000 136.200 4 8 290
1910205N21145 1910 27 WP MM NOT_NAMED 1910-07-26 06:00:00 NR 25.1809 135.933 main 820 789 __________P___ -1 25.1809 135.933 4 8 288
1910205N21145 1910 27 WP MM NOT_NAMED 1910-07-26 09:00:00 NR 25.2960 135.520 main 789 759 __________P___ -1 25.2960 135.520 4 8 287
1910205N21145 1910 27 WP MM NOT_NAMED 1910-07-26 12:00:00 NR 25.4146 135.092 main 759 727 __________P___ -1 25.4146 135.092 4 8 288
1910205N21145 1910 27 WP MM NOT_NAMED 1910-07-26 15:00:00 NR 25.5493 134.650 main 727 708 __________P___ -1 25.5493 134.650 4 8 289
1910205N21145 1910 27 WP MM NOT_NAMED 1910-07-26 16:00:00 NR 25.6000 134.500 main 708 683 __________O___ -1 25.6000 134.500 4 9 294
1910205N21145 1910 27 WP MM NOT_NAMED 1910-07-26 18:00:00 NR 25.7289 134.203 main 683 640 __________P___ -1 25.7289 134.203 4 9 297
1910205N21145 1910 27 WP MM NOT_NAMED 1910-07-26 21:00:00 NR 25.9418 133.745 main 640 592 __________P___ -1 25.9418 133.745 4 9 297
1910205N21145 1910 27 WP MM NOT_NAMED 1910-07-27 00:00:00 NR 26.1558 133.269 main 592 563 __________P___ -1 26.1558 133.269 4 10 295
1910205N21145 1910 27 WP MM NOT_NAMED 1910-07-27 03:00:00 NR 26.3461 132.771 main 563 545 __________P___ -1 26.3461 132.771 4 10 292
1910205N21145 1910 27 WP MM NOT_NAMED 1910-07-27 04:00:00 NR 26.4000 132.600 main 545 523 __________O___ -1 26.4000 132.600 4 10 284
1910205N21145 1910 27 WP MM NOT_NAMED 1910-07-27 06:00:00 NR 26.4681 132.242 main 523 511 __________P___ -1 26.4681 132.242 4 10 280
1910205N21145 1910 27 WP MM NOT_NAMED 1910-07-27 09:00:00 NR 26.5385 131.686 main 511 492 __________P___ -1 26.5385 131.686 4 10 277
1910205N21145 1910 27 WP MM NOT_NAMED 1910-07-27 12:00:00 NR 26.5957 131.124 main 492 480 __________P___ -1 26.5957 131.124 4 10 277
1910205N21145 1910 27 WP MM NOT_NAMED 1910-07-27 15:00:00 NR 26.6677 130.576 main 480 480 __________P___ -1 26.6677 130.576 4 10 279
1910205N21145 1910 27 WP MM NOT_NAMED 1910-07-27 16:00:00 NR 26.7000 130.400 main 480 471 __________O___ -1 26.7000 130.400 4 10 286
1910205N21145 1910 27 WP MM NOT_NAMED 1910-07-27 18:00:00 NR 26.8039 130.056 main 472 459 __________P___ -1 26.8039 130.056 4 10 291
1910205N21145 1910 27 WP MM NOT_NAMED 1910-07-27 21:00:00 NR 26.9857 129.559 main 459 451 __________P___ -1 26.9857 129.559 4 9 293
1910205N21145 1910 27 WP MM NOT_NAMED 1910-07-28 00:00:00 NR 27.1761 129.086 main 451 448 __________P___ -1 27.1761 129.086 4 9 294
1910205N21145 1910 27 WP MM NOT_NAMED 1910-07-28 03:00:00 NR 27.3500 128.641 main 450 450 __________P___ -1 27.3500 128.641 4 9 293
1910205N21145 1910 27 WP MM NOT_NAMED 1910-07-28 04:00:00 NR 27.4000 128.500 main 454 452 __________O___ -1 27.4000 128.500 4 8 288
1910205N21145 1910 27 WP MM NOT_NAMED 1910-07-28 06:00:00 NR 27.4670 128.226 main 456 456 __________P___ -1 27.4670 128.226 4 7 284
1910205N21145 1910 27 WP MM NOT_NAMED 1910-07-28 09:00:00 NR 27.5427 127.842 main 473 464 __________P___ -1 27.5427 127.842 4 7 282
1910205N21145 1910 27 WP MM NOT_NAMED 1910-07-28 12:00:00 NR 27.6051 127.477 main 479 479 __________P___ -1 27.6051 127.477 4 7 281
1910205N21145 1910 27 WP MM NOT_NAMED 1910-07-28 15:00:00 NR 27.6730 127.120 main 492 492 __________P___ -1 27.6730 127.120 4 6 283
1910205N21145 1910 27 WP MM NOT_NAMED 1910-07-28 16:00:00 NR 27.7000 127.000 main 498 493 __________O___ -1 27.7000 127.000 4 7 287
1910205N21145 1910 27 WP MM NOT_NAMED 1910-07-28 18:00:00 NR 27.7742 126.755 main 493 453 __________P___ -1 27.7742 126.755 4 7 290
1910205N21145 1910 27 WP MM NOT_NAMED 1910-07-28 21:00:00 NR 27.8984 126.388 main 453 412 __________P___ -1 27.8984 126.388 4 7 291
1910205N21145 1910 27 WP MM NOT_NAMED 1910-07-29 00:00:00 NR 28.0298 126.016 main 412 368 __________P___ -1 28.0298 126.016 4 7 291
1910205N21145 1910 27 WP MM NOT_NAMED 1910-07-29 03:00:00 NR 28.1590 125.632 main 368 358 __________P___ -1 28.1590 125.632 4 7 290
1910205N21145 1910 27 WP MM NOT_NAMED 1910-07-29 04:00:00 NR 28.2000 125.500 main 358 327 __________O___ -1 28.2000 125.500 4 8 287
1910205N21145 1910 27 WP MM NOT_NAMED 1910-07-29 06:00:00 NR 28.2725 125.217 main 327 286 __________P___ -1 28.2725 125.217 4 8 285
1910205N21145 1910 27 WP MM NOT_NAMED 1910-07-29 09:00:00 NR 28.3749 124.781 main 286 236 __________P___ -1 28.3749 124.781 4 8 285
1910205N21145 1910 27 WP MM NOT_NAMED 1910-07-29 12:00:00 NR 28.4723 124.346 main 236 196 __________P___ -1 28.4723 124.346 4 8 284
1910205N21145 1910 27 WP MM NOT_NAMED 1910-07-29 15:00:00 NR 28.5680 123.931 main 196 187 __________P___ -1 28.5680 123.931 4 7 285
1910205N21145 1910 27 WP MM NOT_NAMED 1910-07-29 16:00:00 NR 28.6000 123.800 main 187 165 __________O___ -1 28.6000 123.800 4 6 287
1910205N21145 1910 27 WP MM NOT_NAMED 1910-07-29 18:00:00 NR 28.6632 123.581 main 165 133 __________P___ -1 28.6632 123.581 4 6 289
1910205N21145 1910 27 WP MM NOT_NAMED 1910-07-29 21:00:00 NR 28.7583 123.278 main 133 102 __________P___ -1 28.7583 123.278 4 6 290
1910205N21145 1910 27 WP MM NOT_NAMED 1910-07-30 00:00:00 NR 28.8571 122.974 main 102 62 __________P___ -1 28.8571 122.974 4 6 290
1910205N21145 1910 27 WP MM NOT_NAMED 1910-07-30 03:00:00 NR 28.9628 122.630 main 62 53 __________P___ -1 28.9628 122.630 4 7 289
1910205N21145 1910 27 WP MM NOT_NAMED 1910-07-30 04:00:00 NR 29.0000 122.500 main 53 22 __________O___ -1 29.0000 122.500 4 8 287
1910205N21145 1910 27 WP MM NOT_NAMED 1910-07-30 06:00:00 NR 29.0779 122.193 main 22 0 __________P___ -1 29.0779 122.193 4 9 286
1910205N21145 1910 27 WP MM NOT_NAMED 1910-07-30 09:00:00 NR 29.2009 121.682 main 0 0 __________P___ -1 29.2009 121.682 4 10 285
1910205N21145 1910 27 WP MM NOT_NAMED 1910-07-30 12:00:00 NR 29.3283 121.136 main 0 0 __________P___ -1 29.3283 121.136 4 10 285
1910205N21145 1910 27 WP MM NOT_NAMED 1910-07-30 15:00:00 NR 29.4572 120.581 main 0 0 __________P___ -1 29.4572 120.581 4 10 285
1910205N21145 1910 27 WP MM NOT_NAMED 1910-07-30 16:00:00 NR 29.5000 120.400 main 0 0 __________O___ -1 29.5000 120.400 4 10 285
1910205N21145 1910 27 WP MM NOT_NAMED 1910-07-30 18:00:00 NR 29.5851 120.046 main 0 0 __________P___ -1 29.5851 120.046 4 9 286
1910205N21145 1910 27 WP MM NOT_NAMED 1910-07-30 21:00:00 NR 29.7114 119.536 main 0 0 __________P___ -1 29.7114 119.536 4 9 286
1910205N21145 1910 27 WP MM NOT_NAMED 1910-07-31 00:00:00 NR 29.8361 119.044 main 0 0 __________P___ -1 29.8361 119.044 4 9 286
1910205N21145 1910 27 WP MM NOT_NAMED 1910-07-31 03:00:00 NR 29.9593 118.560 main 0 0 __________P___ -1 29.9593 118.560 4 9 286
1910205N21145 1910 27 WP MM NOT_NAMED 1910-07-31 04:00:00 NR 30.0000 118.400 main 0 __________O___ -1 30.0000 118.400 7 9 287

Digital Typhoon Data and Search

About IBTrACS Database

This database is a web-friendly format of International Best Track Archive for Climate Stewardship (IBTrACS), a global best track data archive curated by NOAA dating back to 1842.

Updated: 2021-12-01